createdAt,value
2022-12-23T00:00:20.501Z,4.03
2022-12-23T00:02:49.275Z,4.07
2022-12-23T00:05:17.591Z,3.47
2022-12-23T00:07:47.650Z,4.40
2022-12-23T00:10:15.718Z,3.40
2022-12-23T00:13:01.104Z,3.97
2022-12-23T00:15:28.533Z,3.37
2022-12-23T00:17:58.116Z,3.00
2022-12-23T00:20:24.393Z,3.40
2022-12-23T00:23:08.595Z,3.23
2022-12-23T00:25:44.075Z,2.83
2022-12-23T00:28:12.685Z,2.35
2022-12-23T00:30:48.899Z,2.67
2022-12-23T00:33:16.240Z,2.17
2022-12-23T00:35:44.530Z,3.13
2022-12-23T00:38:12.350Z,2.60
2022-12-23T00:40:57.439Z,2.60
2022-12-23T00:43:23.916Z,2.50
2022-12-23T00:45:54.735Z,2.33
2022-12-23T00:48:39.706Z,2.13
2022-12-23T00:51:06.457Z,2.20
2022-12-23T00:53:33.544Z,2.13
2022-12-23T00:56:13.049Z,2.00
2022-12-23T00:58:42.221Z,1.90
2022-12-23T01:01:27.440Z,2.00
2022-12-23T01:04:12.931Z,1.50
2022-12-23T01:06:42.029Z,1.30
2022-12-23T01:09:09.739Z,1.80
2022-12-23T01:11:36.173Z,1.47
2022-12-23T01:14:03.287Z,1.73
2022-12-23T01:16:32.163Z,1.60
2022-12-23T01:18:58.905Z,1.87
2022-12-23T01:21:25.961Z,1.43
2022-12-23T01:23:54.730Z,1.47
2022-12-23T01:26:21.151Z,1.30
2022-12-23T01:28:50.667Z,1.40
2022-12-23T01:34:00.939Z,1.13
2022-12-23T01:36:28.073Z,0.87
2022-12-23T01:38:58.850Z,1.70
2022-12-23T01:41:45.493Z,1.00
2022-12-23T01:44:34.874Z,0.90
2022-12-23T01:47:19.421Z,0.98
2022-12-23T01:49:55.148Z,1.00
2022-12-23T01:52:25.374Z,0.70
2022-12-23T01:54:53.851Z,0.90
2022-12-23T01:57:21.205Z,0.70
2022-12-23T02:00:09.553Z,1.10
2022-12-23T02:02:55.994Z,0.93
2022-12-23T02:05:24.314Z,1.00
2022-12-23T02:08:11.707Z,0.77
2022-12-23T02:10:45.840Z,0.70
2022-12-23T02:13:18.625Z,0.87
2022-12-23T02:16:10.143Z,0.90
2022-12-23T02:18:57.767Z,0.73
2022-12-23T02:21:32.573Z,0.87
2022-12-23T02:24:04.954Z,0.77
2022-12-23T02:26:35.172Z,0.80
2022-12-23T02:29:06.187Z,0.50
2022-12-23T02:31:51.617Z,0.60
2022-12-23T02:34:32.890Z,0.60
2022-12-23T02:37:19.681Z,0.80
2022-12-23T02:40:01.910Z,1.17
2022-12-23T02:42:36.663Z,0.67
2022-12-23T02:45:07.751Z,1.13
2022-12-23T02:47:43.135Z,0.93
2022-12-23T02:50:14.907Z,1.40
2022-12-23T02:52:45.542Z,1.17
2022-12-23T02:55:17.069Z,1.47
2022-12-23T02:57:48.951Z,1.67
2022-12-23T03:00:18.427Z,1.30
2022-12-23T03:02:46.007Z,1.70
2022-12-23T03:05:27.486Z,1.53
2022-12-23T03:07:56.589Z,1.40
2022-12-23T03:10:42.511Z,1.60
2022-12-23T03:13:24.412Z,1.70
2022-12-23T03:15:57.267Z,2.13
2022-12-23T03:18:42.467Z,1.73
2022-12-23T03:21:19.675Z,1.70
2022-12-23T03:23:56.633Z,2.10
2022-12-23T03:26:26.848Z,2.00
2022-12-23T03:29:04.632Z,2.07
2022-12-23T03:31:34.549Z,2.53
2022-12-23T03:34:03.935Z,2.33
2022-12-23T03:36:36.677Z,2.30
2022-12-23T03:39:12.935Z,2.77
2022-12-23T03:41:41.526Z,2.57
2022-12-23T03:44:13.314Z,3.50
2022-12-23T03:46:51.830Z,2.57
2022-12-23T03:49:30.731Z,2.77
2022-12-23T03:52:02.844Z,2.60
2022-12-23T03:54:47.097Z,2.80
2022-12-23T03:57:14.375Z,3.50
2022-12-23T03:59:56.646Z,3.20
2022-12-23T04:02:47.582Z,3.17
2022-12-23T04:05:23.829Z,3.67
2022-12-23T04:08:10.367Z,4.00
2022-12-23T04:10:39.007Z,4.33
2022-12-23T04:13:06.448Z,3.23
2022-12-23T04:15:33.627Z,3.80
2022-12-23T04:18:00.130Z,3.87
2022-12-23T04:20:26.830Z,4.03
2022-12-23T04:22:53.200Z,3.00
2022-12-23T04:25:20.391Z,3.33
2022-12-23T04:27:47.069Z,2.83
2022-12-23T04:30:15.374Z,3.50
2022-12-23T04:32:46.165Z,3.53
2022-12-23T04:35:15.867Z,3.70
2022-12-23T04:37:42.665Z,3.40
2022-12-23T04:40:09.364Z,3.20
2022-12-23T04:42:38.879Z,4.10
2022-12-23T04:45:07.944Z,3.23
2022-12-23T04:47:39.222Z,3.13
2022-12-23T04:50:09.366Z,3.30
2022-12-23T04:52:48.358Z,3.60
2022-12-23T04:55:16.942Z,4.50
2022-12-23T04:57:45.373Z,3.40
2022-12-23T05:00:14.021Z,3.17
2022-12-23T05:05:27.901Z,3.20
2022-12-23T05:08:03.482Z,3.73
2022-12-23T05:10:31.379Z,2.93
2022-12-23T05:12:59.671Z,2.63
2022-12-23T05:15:30.176Z,2.63
2022-12-23T05:17:57.531Z,3.17
2022-12-23T05:20:23.930Z,2.93
2022-12-23T05:22:50.557Z,3.20
2022-12-23T05:25:17.465Z,3.00
2022-12-23T05:27:44.187Z,3.07
2022-12-23T05:30:14.903Z,2.60
2022-12-23T05:32:42.599Z,3.00
2022-12-23T05:35:10.125Z,2.77
2022-12-23T05:37:42.047Z,2.83
2022-12-23T05:40:15.006Z,2.13
2022-12-23T05:43:01.004Z,2.03
2022-12-23T05:45:31.652Z,2.40
2022-12-23T05:47:58.512Z,2.10
2022-12-23T05:50:26.209Z,2.30
2022-12-23T05:52:56.741Z,2.60
2022-12-23T05:55:24.448Z,2.53
2022-12-23T05:58:02.836Z,2.67
2022-12-23T06:00:35.047Z,1.90
2022-12-23T06:05:54.719Z,1.57
2022-12-23T06:08:28.563Z,1.70
2022-12-23T06:11:05.721Z,1.43
2022-12-23T06:13:32.425Z,2.50
2022-12-23T06:16:01.605Z,1.90
2022-12-23T06:18:34.588Z,1.70
2022-12-23T06:21:02.447Z,2.10
2022-12-23T06:23:29.289Z,2.40
2022-12-23T06:26:01.090Z,1.83
2022-12-23T06:28:28.544Z,1.60
2022-12-23T06:30:59.802Z,1.57
2022-12-23T06:33:29.874Z,1.90
2022-12-23T06:36:00.839Z,2.03
2022-12-23T06:38:28.012Z,2.30
2022-12-23T06:40:57.132Z,1.90
2022-12-23T06:43:24.515Z,1.60
2022-12-23T06:45:55.566Z,1.53
2022-12-23T06:48:22.798Z,2.23
2022-12-23T06:50:49.505Z,1.43
2022-12-23T06:53:16.601Z,1.53
2022-12-23T06:55:43.053Z,1.37
2022-12-23T06:58:10.638Z,1.60
2022-12-23T07:00:38.735Z,1.30
2022-12-23T07:03:05.182Z,1.93
2022-12-23T07:05:39.570Z,1.40
2022-12-23T07:08:09.596Z,1.50
2022-12-23T07:10:36.698Z,1.43
2022-12-23T07:13:07.526Z,1.20
2022-12-23T07:15:36.560Z,1.33
2022-12-23T07:18:06.032Z,1.80
2022-12-23T07:20:33.118Z,2.07
2022-12-23T07:23:04.430Z,1.57
2022-12-23T07:25:33.979Z,1.40
2022-12-23T07:28:00.751Z,1.50
2022-12-23T07:30:34.227Z,1.60
2022-12-23T07:33:02.286Z,1.73
2022-12-23T07:35:29.439Z,1.70
2022-12-23T07:38:01.646Z,1.50
2022-12-23T07:40:28.174Z,1.67
2022-12-23T07:42:58.345Z,1.80
2022-12-23T07:45:27.826Z,2.00
2022-12-23T07:47:59.524Z,2.27
2022-12-23T07:50:28.252Z,1.50
2022-12-23T07:53:02.297Z,1.90
2022-12-23T07:55:30.645Z,1.90
2022-12-23T07:57:57.044Z,1.80
2022-12-23T08:00:29.843Z,1.90
2022-12-23T08:03:00.837Z,2.20
2022-12-23T08:05:29.284Z,1.73
2022-12-23T08:07:56.082Z,2.33
2022-12-23T08:10:22.882Z,1.70
2022-12-23T08:12:50.691Z,2.03
2022-12-23T08:15:19.672Z,1.60
2022-12-23T08:17:48.039Z,1.63
2022-12-23T08:20:17.554Z,1.60
2022-12-23T08:22:45.239Z,1.83
2022-12-23T08:25:11.638Z,2.17
2022-12-23T08:27:39.415Z,2.27
2022-12-23T08:30:07.602Z,2.00
2022-12-23T08:32:35.310Z,1.97
2022-12-23T08:35:05.780Z,2.00
2022-12-23T08:37:34.532Z,2.47
2022-12-23T08:40:01.404Z,1.87
2022-12-23T08:42:27.730Z,1.90
2022-12-23T08:45:00.480Z,2.17
2022-12-23T08:47:34.878Z,2.30
2022-12-23T08:50:06.359Z,1.67
2022-12-23T08:52:37.160Z,2.30
2022-12-23T08:55:06.822Z,2.33
2022-12-23T08:57:42.075Z,1.97
2022-12-23T09:00:11.074Z,2.20
2022-12-23T09:02:39.546Z,2.00
2022-12-23T09:05:08.559Z,1.90
2022-12-23T09:07:34.985Z,1.80
2022-12-23T09:10:01.712Z,1.90
2022-12-23T09:12:28.156Z,2.30
2022-12-23T09:14:57.407Z,1.90
2022-12-23T09:17:25.124Z,1.93
2022-12-23T09:19:56.549Z,1.67
2022-12-23T09:22:26.660Z,1.80
2022-12-23T09:25:05.210Z,3.10
2022-12-23T09:27:37.987Z,1.73
2022-12-23T09:30:05.920Z,2.07
2022-12-23T09:32:32.768Z,2.10
2022-12-23T09:34:59.492Z,2.40
2022-12-23T09:37:25.843Z,2.00
2022-12-23T09:39:52.577Z,2.80
2022-12-23T09:42:44.775Z,2.30
2022-12-23T09:45:24.831Z,2.23
2022-12-23T09:47:55.644Z,2.63
2022-12-23T09:50:29.352Z,2.10
2022-12-23T09:53:04.336Z,1.60
2022-12-23T09:55:42.615Z,1.87
2022-12-23T09:58:26.358Z,1.87
2022-12-23T10:01:01.610Z,1.70
2022-12-23T10:03:33.894Z,1.83
2022-12-23T10:06:12.086Z,1.83
2022-12-23T10:08:44.551Z,1.77
2022-12-23T10:11:15.320Z,1.93
2022-12-23T10:13:48.567Z,2.10
2022-12-23T10:16:26.163Z,2.20
2022-12-23T10:18:55.542Z,2.47
2022-12-23T10:21:34.547Z,2.33
2022-12-23T10:24:03.459Z,2.73
2022-12-23T10:26:35.840Z,2.73
2022-12-23T10:29:08.356Z,2.80
2022-12-23T10:31:53.751Z,2.40
2022-12-23T10:34:24.515Z,2.43
2022-12-23T10:37:02.448Z,2.70
2022-12-23T10:39:35.758Z,2.23
2022-12-23T10:42:10.841Z,2.70
2022-12-23T10:44:46.715Z,2.40
2022-12-23T10:47:52.539Z,2.22
2022-12-23T10:50:21.812Z,1.70
2022-12-23T10:52:49.954Z,2.60
2022-12-23T10:55:22.085Z,2.17
2022-12-23T10:57:49.500Z,2.13
2022-12-23T11:00:19.573Z,2.27
2022-12-23T11:02:51.631Z,1.77
2022-12-23T11:05:22.324Z,1.80
2022-12-23T11:07:52.062Z,2.53
2022-12-23T11:10:22.417Z,2.00
2022-12-23T11:12:51.064Z,1.93
2022-12-23T11:15:26.262Z,2.63
2022-12-23T11:17:59.357Z,2.00
2022-12-23T11:20:27.260Z,2.77
2022-12-23T11:22:58.732Z,2.47
2022-12-23T11:25:27.510Z,2.77
2022-12-23T11:27:56.133Z,2.53
2022-12-23T11:30:29.965Z,2.97
2022-12-23T11:32:56.465Z,2.97
2022-12-23T11:35:29.278Z,2.77
2022-12-23T11:38:02.556Z,2.30
2022-12-23T11:40:42.729Z,2.77
2022-12-23T11:43:14.397Z,2.27
2022-12-23T11:45:43.278Z,2.80
2022-12-23T11:48:29.776Z,3.03
2022-12-23T11:51:03.185Z,2.70
2022-12-23T11:53:29.499Z,3.07
2022-12-23T11:56:01.229Z,2.67
2022-12-23T11:58:29.372Z,2.43
2022-12-23T12:03:44.324Z,2.10
2022-12-23T12:06:13.464Z,2.43
2022-12-23T12:08:40.446Z,2.20
2022-12-23T12:11:12.147Z,2.03
2022-12-23T12:13:40.611Z,1.93
2022-12-23T12:16:26.773Z,2.10
2022-12-23T12:18:56.079Z,2.10
2022-12-23T12:21:28.601Z,2.67
2022-12-23T12:24:17.907Z,2.30
2022-12-23T12:26:49.307Z,2.27
2022-12-23T12:29:51.228Z,2.40
2022-12-23T12:32:22.822Z,2.53
2022-12-23T12:35:08.019Z,2.43
2022-12-23T12:37:59.430Z,2.07
2022-12-23T12:40:42.998Z,2.87
2022-12-23T12:43:28.290Z,2.60
2022-12-23T12:46:13.573Z,2.20
2022-12-23T12:48:58.917Z,2.23
2022-12-23T12:51:28.461Z,2.40
2022-12-23T12:54:05.219Z,2.20
2022-12-23T12:56:38.640Z,2.40
2022-12-23T12:59:05.180Z,2.10
2022-12-23T13:01:31.863Z,2.13
2022-12-23T13:03:58.525Z,2.33
2022-12-23T13:06:24.858Z,2.80
2022-12-23T13:09:00.018Z,2.73
2022-12-23T13:11:35.795Z,2.40
2022-12-23T13:14:22.358Z,2.17
2022-12-23T13:17:00.760Z,2.97
2022-12-23T13:19:38.154Z,2.90
2022-12-23T13:22:18.117Z,3.30
2022-12-23T13:24:58.010Z,2.83
2022-12-23T13:27:50.533Z,2.60
2022-12-23T13:30:18.862Z,3.50
2022-12-23T13:32:45.151Z,2.47
2022-12-23T13:35:23.711Z,2.97
2022-12-23T13:37:53.338Z,2.50
2022-12-23T13:40:39.220Z,3.00
2022-12-23T13:43:14.874Z,2.83
2022-12-23T13:45:41.687Z,2.65
2022-12-23T13:48:24.453Z,3.07
2022-12-23T13:50:57.811Z,2.60
2022-12-23T13:53:30.304Z,2.40
2022-12-23T13:56:19.625Z,2.67
2022-12-23T13:58:49.724Z,2.20
2022-12-23T14:01:16.157Z,2.27
2022-12-23T14:03:42.643Z,2.00
2022-12-23T14:06:22.141Z,2.27
2022-12-23T14:08:48.840Z,1.83
2022-12-23T14:11:26.155Z,1.87
2022-12-23T14:14:05.885Z,1.90
2022-12-23T14:16:47.669Z,1.90
2022-12-23T14:19:18.616Z,1.90
2022-12-23T14:21:57.249Z,2.07
2022-12-23T14:24:26.905Z,1.60
2022-12-23T14:27:04.911Z,1.30
2022-12-23T14:29:37.730Z,1.90
2022-12-23T14:32:04.429Z,1.97
2022-12-23T14:34:32.189Z,2.80
2022-12-23T14:37:17.393Z,2.23
2022-12-23T14:39:43.811Z,2.30
2022-12-23T14:42:15.016Z,2.33
2022-12-23T14:44:45.728Z,1.53
2022-12-23T14:47:30.285Z,1.83
2022-12-23T14:49:56.723Z,2.23
2022-12-23T14:52:40.776Z,2.50
2022-12-23T14:55:31.554Z,2.73
2022-12-23T14:58:01.914Z,2.63
2022-12-23T15:00:32.137Z,2.50
2022-12-23T15:02:59.314Z,2.20
2022-12-23T15:05:25.719Z,2.37
2022-12-23T15:07:52.699Z,2.40
2022-12-23T15:10:21.196Z,2.10
2022-12-23T15:12:52.886Z,2.10
2022-12-23T15:15:28.046Z,2.13
2022-12-23T15:18:12.446Z,2.00
2022-12-23T15:20:39.085Z,2.00
2022-12-23T15:23:09.715Z,1.17
2022-12-23T15:25:42.313Z,1.07
2022-12-23T15:28:16.528Z,0.83
2022-12-23T15:30:48.055Z,1.07
2022-12-23T15:34:00.731Z,1.03
2022-12-23T15:36:05.782Z,1.03
2022-12-23T15:38:35.209Z,1.13
2022-12-23T15:41:03.590Z,1.53
2022-12-23T15:43:30.486Z,1.37
2022-12-23T15:46:30.896Z,1.43
2022-12-23T15:48:58.044Z,1.03
2022-12-23T15:51:50.092Z,1.37
2022-12-23T15:54:20.306Z,1.90
2022-12-23T15:56:48.259Z,1.37
2022-12-23T15:59:25.782Z,1.67
2022-12-23T16:01:52.531Z,1.83
2022-12-23T16:04:22.193Z,1.70
2022-12-23T16:06:49.630Z,1.80
2022-12-23T16:09:15.879Z,2.20
2022-12-23T16:11:50.087Z,2.17
2022-12-23T16:14:22.357Z,2.90
2022-12-23T16:16:50.540Z,3.20
2022-12-23T16:19:35.974Z,3.17
2022-12-23T16:22:19.318Z,3.27
2022-12-23T16:24:54.485Z,3.20
2022-12-23T16:27:27.740Z,3.47
2022-12-23T16:29:54.956Z,3.67
2022-12-23T16:32:21.377Z,4.10
2022-12-23T16:34:49.170Z,4.63
2022-12-23T16:37:15.664Z,4.23
2022-12-23T16:39:41.952Z,3.33
2022-12-23T16:42:08.466Z,4.20
2022-12-23T16:44:34.903Z,3.73
2022-12-23T16:47:08.292Z,3.50
2022-12-23T16:49:40.783Z,3.93
2022-12-23T16:52:15.073Z,4.33
2022-12-23T16:54:42.783Z,3.83
2022-12-23T16:57:10.224Z,3.90
2022-12-23T16:59:39.393Z,4.03
2022-12-23T17:02:16.522Z,3.53
2022-12-23T17:04:44.292Z,3.70
2022-12-23T17:07:13.725Z,4.03
2022-12-23T17:09:40.329Z,5.27
2022-12-23T17:12:09.831Z,5.10
2022-12-23T17:14:38.849Z,5.40
2022-12-23T17:17:12.508Z,5.07
2022-12-23T17:19:39.080Z,5.93
2022-12-23T17:22:05.448Z,4.70
2022-12-23T17:24:32.834Z,5.30
2022-12-23T17:27:01.505Z,4.33
2022-12-23T17:29:28.409Z,3.90
2022-12-23T17:31:55.997Z,3.40
2022-12-23T17:34:24.862Z,3.70
2022-12-23T17:36:53.715Z,4.20
2022-12-23T17:39:20.828Z,3.43
2022-12-23T17:41:47.787Z,3.37
2022-12-23T17:44:40.628Z,3.90
2022-12-23T17:47:20.650Z,2.93
2022-12-23T17:49:47.574Z,2.70
2022-12-23T17:52:14.210Z,3.10
2022-12-23T17:54:42.396Z,2.80
2022-12-23T17:57:19.710Z,2.60
2022-12-23T17:59:47.896Z,2.50
2022-12-23T18:02:22.029Z,2.57
2022-12-23T18:04:50.487Z,1.80
2022-12-23T18:07:19.136Z,2.67
2022-12-23T18:09:45.814Z,1.97
2022-12-23T18:12:25.230Z,1.93
2022-12-23T18:14:57.734Z,2.20
2022-12-23T18:17:28.126Z,2.20
2022-12-23T18:19:59.187Z,1.57
2022-12-23T18:22:27.672Z,1.73
2022-12-23T18:24:59.427Z,1.70
2022-12-23T18:27:26.962Z,1.73
2022-12-23T18:29:57.012Z,1.50
2022-12-23T18:32:27.310Z,1.93
2022-12-23T18:34:55.867Z,1.40
2022-12-23T18:37:24.047Z,1.70
2022-12-23T18:39:54.094Z,1.43
2022-12-23T18:42:25.272Z,1.60
2022-12-23T18:44:55.942Z,1.53
2022-12-23T18:47:25.808Z,1.20
2022-12-23T18:49:55.559Z,1.20
2022-12-23T18:52:22.238Z,1.60
2022-12-23T18:54:48.626Z,1.17
2022-12-23T18:57:15.510Z,1.30
2022-12-23T18:59:41.952Z,2.17
2022-12-23T19:02:11.144Z,1.37
2022-12-23T19:04:37.459Z,1.50
2022-12-23T19:07:03.837Z,1.00
2022-12-23T19:09:30.205Z,1.33
2022-12-23T19:11:57.061Z,0.90
2022-12-23T19:14:23.423Z,1.80
2022-12-23T19:16:52.706Z,1.10
2022-12-23T19:19:19.722Z,1.10
2022-12-23T19:21:46.133Z,1.10
2022-12-23T19:24:12.522Z,1.13
2022-12-23T19:26:39.029Z,1.37
2022-12-23T19:29:05.825Z,1.13
2022-12-23T19:31:34.013Z,1.10
2022-12-23T19:34:00.662Z,1.13
2022-12-23T19:36:27.091Z,1.40
2022-12-23T19:38:53.509Z,1.20
2022-12-23T19:41:20.759Z,1.03
2022-12-23T19:43:47.235Z,1.33
2022-12-23T19:46:14.597Z,1.70
2022-12-23T19:48:41.324Z,1.03
2022-12-23T19:51:09.418Z,1.30
2022-12-23T19:53:36.106Z,1.13
2022-12-23T19:56:04.312Z,1.37
2022-12-23T19:58:35.833Z,1.17
2022-12-23T20:01:13.240Z,1.30
2022-12-23T20:03:40.474Z,0.90
2022-12-23T20:06:08.014Z,1.00
2022-12-23T20:08:34.872Z,1.50
2022-12-23T20:11:07.117Z,1.13
2022-12-23T20:13:33.742Z,1.30
2022-12-23T20:16:00.324Z,1.27
2022-12-23T20:18:27.112Z,1.70
2022-12-23T20:20:53.532Z,1.30
2022-12-23T20:23:21.613Z,0.83
2022-12-23T20:25:47.951Z,1.23
2022-12-23T20:28:14.614Z,1.03
2022-12-23T20:30:42.432Z,1.13
2022-12-23T20:33:10.364Z,1.60
2022-12-23T20:35:36.959Z,1.40
2022-12-23T20:38:04.028Z,2.13
2022-12-23T20:40:30.468Z,0.97
2022-12-23T20:42:58.228Z,1.23
2022-12-23T20:45:27.696Z,1.40
2022-12-23T20:47:54.542Z,0.93
2022-12-23T20:50:21.958Z,2.67
2022-12-23T20:52:48.460Z,1.13
2022-12-23T20:55:15.614Z,1.00
2022-12-23T20:57:44.181Z,1.07
2022-12-23T21:00:12.196Z,1.10
2022-12-23T21:02:40.975Z,2.40
2022-12-23T21:05:07.646Z,1.73
2022-12-23T21:07:34.030Z,1.23
2022-12-23T21:10:00.447Z,0.97
2022-12-23T21:12:26.817Z,0.70
2022-12-23T21:14:53.211Z,1.23
2022-12-23T21:17:21.454Z,1.20
2022-12-23T21:19:47.802Z,1.43
2022-12-23T21:22:14.165Z,1.53
2022-12-23T21:24:40.583Z,1.73
2022-12-23T21:27:06.915Z,1.13
2022-12-23T21:29:33.255Z,1.40
2022-12-23T21:32:01.161Z,1.20
2022-12-23T21:34:27.617Z,1.43
2022-12-23T21:36:54.101Z,1.10
2022-12-23T21:39:20.596Z,1.57
2022-12-23T21:41:49.080Z,0.90
2022-12-23T21:44:15.511Z,1.00
2022-12-23T21:46:41.932Z,0.70
2022-12-23T21:49:10.150Z,1.00
2022-12-23T21:51:40.775Z,0.93
2022-12-23T21:54:08.537Z,0.80
2022-12-23T21:56:37.342Z,0.73
2022-12-23T21:59:05.145Z,1.33
2022-12-23T22:01:31.723Z,2.20
2022-12-23T22:03:58.087Z,1.30
2022-12-23T22:06:25.817Z,1.03
2022-12-23T22:08:52.874Z,1.20
2022-12-23T22:11:23.236Z,1.30
2022-12-23T22:13:49.931Z,1.20
2022-12-23T22:16:20.298Z,1.17
2022-12-23T22:18:47.387Z,1.30
2022-12-23T22:21:17.658Z,1.03
2022-12-23T22:23:44.135Z,1.57
2022-12-23T22:26:12.148Z,1.00
2022-12-23T22:28:38.935Z,1.90
2022-12-23T22:31:13.475Z,1.30
2022-12-23T22:33:39.930Z,0.90
2022-12-23T22:36:06.655Z,1.47
2022-12-23T22:38:32.969Z,1.40
2022-12-23T22:40:59.258Z,1.30
2022-12-23T22:43:25.594Z,1.07
2022-12-23T22:45:55.910Z,1.67
2022-12-23T22:48:22.936Z,1.73
2022-12-23T22:50:49.378Z,1.63
2022-12-23T22:53:15.878Z,1.13
2022-12-23T22:55:42.260Z,1.20
2022-12-23T22:58:08.651Z,1.63
2022-12-23T23:00:37.283Z,1.40
2022-12-23T23:03:03.691Z,1.40
2022-12-23T23:05:30.033Z,1.13
2022-12-23T23:07:56.391Z,1.53
2022-12-23T23:10:22.989Z,1.43
2022-12-23T23:12:49.416Z,1.40
2022-12-23T23:15:15.802Z,1.20
2022-12-23T23:17:42.279Z,1.70
2022-12-23T23:20:09.011Z,1.50
2022-12-23T23:22:37.089Z,1.37
2022-12-23T23:25:03.514Z,1.30
2022-12-23T23:27:29.892Z,1.87
2022-12-23T23:29:56.235Z,1.33
2022-12-23T23:32:22.784Z,1.40
2022-12-23T23:34:49.796Z,1.23
2022-12-23T23:37:16.128Z,1.50
2022-12-23T23:39:42.609Z,1.73
2022-12-23T23:42:09.606Z,1.10
2022-12-23T23:44:36.772Z,1.63
2022-12-23T23:47:03.088Z,1.70
2022-12-23T23:49:29.770Z,1.77
2022-12-23T23:51:59.207Z,0.97
2022-12-23T23:54:25.601Z,1.00
2022-12-23T23:56:53.043Z,0.90
2022-12-23T23:59:19.363Z,1.60
